createdAt,value
2023-01-24T00:01:24.909Z,3.10
2023-01-24T00:03:53.151Z,2.55
2023-01-24T00:06:21.488Z,2.25
2023-01-24T00:08:50.027Z,2.97
2023-01-24T00:11:18.372Z,2.33
2023-01-24T00:13:46.459Z,3.40
2023-01-24T00:16:17.457Z,3.72
2023-01-24T00:18:46.347Z,4.68
2023-01-24T00:23:49.486Z,6.80
2023-01-24T00:26:19.537Z,6.65
2023-01-24T00:28:48.774Z,6.75
2023-01-24T00:31:17.782Z,6.90
2023-01-24T00:33:46.074Z,7.20
2023-01-24T00:36:15.051Z,7.22
2023-01-24T00:38:43.518Z,7.90
2023-01-24T00:41:11.915Z,8.85
2023-01-24T00:43:40.060Z,9.00
2023-01-24T00:46:09.854Z,9.80
2023-01-24T00:48:38.163Z,11.25
2023-01-24T00:51:07.174Z,11.75
2023-01-24T00:53:35.871Z,11.70
2023-01-24T00:56:04.210Z,12.07
2023-01-24T00:58:34.488Z,15.15
2023-01-24T01:01:02.698Z,12.23
2023-01-24T01:03:32.104Z,13.10
2023-01-24T01:06:02.501Z,14.45
2023-01-24T01:08:31.015Z,13.38
2023-01-24T01:10:59.431Z,12.68
2023-01-24T01:13:28.335Z,12.85
2023-01-24T01:18:36.048Z,11.70
2023-01-24T01:21:05.276Z,13.07
2023-01-24T01:23:33.931Z,13.15
2023-01-24T01:28:35.717Z,11.13
2023-01-24T01:31:04.105Z,12.55
2023-01-24T01:33:32.404Z,12.93
2023-01-24T01:36:01.007Z,11.45
2023-01-24T01:38:29.181Z,11.73
2023-01-24T01:40:57.910Z,11.27
2023-01-24T01:43:29.888Z,11.02
2023-01-24T01:46:25.257Z,11.75
2023-01-24T01:48:56.578Z,11.25
2023-01-24T01:51:45.123Z,10.48
2023-01-24T01:54:22.276Z,11.25
2023-01-24T01:56:53.043Z,11.27
2023-01-24T01:59:29.084Z,10.02
2023-01-24T02:01:59.509Z,10.20
2023-01-24T02:04:38.883Z,9.35
2023-01-24T02:07:20.555Z,10.55
2023-01-24T02:09:52.798Z,10.30
2023-01-24T02:12:44.298Z,9.60
2023-01-24T02:15:19.033Z,9.70
2023-01-24T02:17:47.386Z,9.70
2023-01-24T02:20:39.213Z,9.93
2023-01-24T02:23:30.137Z,9.88
2023-01-24T02:26:18.179Z,9.30
2023-01-24T02:28:55.990Z,9.27
2023-01-24T02:31:25.163Z,8.77
2023-01-24T02:33:53.280Z,9.30
2023-01-24T02:36:30.316Z,7.75
2023-01-24T02:39:15.168Z,9.05
2023-01-24T02:41:54.994Z,9.73
2023-01-24T02:44:42.087Z,9.00
2023-01-24T02:47:10.457Z,9.43
2023-01-24T02:49:38.683Z,9.25
2023-01-24T02:52:08.610Z,7.22
2023-01-24T02:54:39.520Z,8.45
2023-01-24T02:57:08.135Z,8.40
2023-01-24T02:59:37.332Z,9.20
2023-01-24T03:02:06.731Z,9.10
2023-01-24T03:04:38.647Z,8.43
2023-01-24T03:07:10.728Z,6.78
2023-01-24T03:09:42.665Z,7.40
2023-01-24T03:12:11.546Z,8.57
2023-01-24T03:14:39.622Z,7.90
2023-01-24T03:17:07.979Z,7.88
2023-01-24T03:19:36.285Z,7.50
2023-01-24T03:24:33.512Z,7.45
2023-01-24T03:27:01.817Z,7.82
2023-01-24T03:31:59.820Z,8.60
2023-01-24T03:34:29.572Z,7.85
2023-01-24T03:36:57.928Z,8.23
2023-01-24T03:41:54.463Z,7.45
2023-01-24T03:44:22.639Z,7.85
2023-01-24T03:46:50.973Z,8.20
2023-01-24T03:49:19.271Z,7.78
2023-01-24T03:51:47.769Z,7.38
2023-01-24T03:54:16.378Z,7.97
2023-01-24T03:56:53.911Z,8.05
2023-01-24T03:59:23.808Z,8.13
2023-01-24T04:04:27.836Z,7.28
2023-01-24T04:06:56.310Z,6.90
2023-01-24T04:09:25.259Z,8.13
2023-01-24T04:11:53.450Z,8.02
2023-01-24T04:14:26.857Z,7.65
2023-01-24T04:17:03.680Z,7.88
2023-01-24T04:19:45.259Z,6.93
2023-01-24T04:22:13.866Z,8.13
2023-01-24T04:24:41.970Z,6.95
2023-01-24T04:27:10.337Z,7.22
2023-01-24T04:29:55.873Z,6.55
2023-01-24T04:32:24.226Z,6.88
2023-01-24T04:35:01.527Z,7.25
2023-01-24T04:38:05.363Z,7.05
2023-01-24T04:41:13.117Z,7.10
2023-01-24T04:43:42.790Z,6.90
2023-01-24T04:46:12.197Z,7.43
2023-01-24T04:48:54.088Z,7.20
2023-01-24T04:51:24.667Z,6.40
2023-01-24T04:53:53.596Z,7.07
2023-01-24T04:56:26.150Z,7.32
2023-01-24T04:58:59.464Z,7.30
2023-01-24T05:04:55.346Z,6.95
2023-01-24T05:07:24.072Z,7.82
2023-01-24T05:10:00.337Z,7.40
2023-01-24T05:12:29.341Z,7.10
2023-01-24T05:15:01.678Z,6.82
2023-01-24T05:17:30.458Z,6.95
2023-01-24T05:22:27.347Z,7.75
2023-01-24T05:24:55.569Z,7.40
2023-01-24T05:27:23.946Z,6.95
2023-01-24T05:29:58.908Z,7.38
2023-01-24T05:34:56.589Z,6.32
2023-01-24T05:37:26.625Z,6.53
2023-01-24T05:39:55.012Z,6.57
2023-01-24T05:42:23.208Z,7.22
2023-01-24T05:44:55.029Z,7.05
2023-01-24T05:47:23.628Z,7.18
2023-01-24T05:49:52.272Z,6.80
2023-01-24T05:52:21.828Z,7.00
2023-01-24T05:54:54.190Z,7.32
2023-01-24T05:57:51.257Z,7.35
2023-01-24T06:00:20.004Z,6.80
2023-01-24T06:03:14.465Z,6.10
2023-01-24T06:05:50.764Z,6.38
2023-01-24T06:08:20.724Z,6.45
2023-01-24T06:10:50.236Z,5.43
2023-01-24T06:13:20.668Z,6.47
2023-01-24T06:15:48.924Z,6.45
2023-01-24T06:18:19.677Z,5.72
2023-01-24T06:20:51.293Z,6.57
2023-01-24T06:23:28.729Z,6.15
2023-01-24T06:26:01.322Z,6.78
2023-01-24T06:28:29.803Z,5.95
2023-01-24T06:31:23.394Z,5.32
2023-01-24T06:34:09.243Z,6.72
2023-01-24T06:36:49.553Z,6.00
2023-01-24T06:39:18.282Z,6.57
2023-01-24T06:44:14.958Z,5.95
2023-01-24T06:46:43.166Z,5.82
2023-01-24T06:54:08.874Z,6.25
2023-01-24T06:56:37.203Z,5.55
2023-01-24T06:59:05.349Z,6.50
2023-01-24T07:01:33.853Z,6.10
2023-01-24T07:04:02.273Z,5.95
2023-01-24T07:06:30.443Z,6.28
2023-01-24T07:08:59.963Z,6.50
2023-01-24T07:11:28.834Z,5.72
2023-01-24T07:16:25.001Z,5.27
2023-01-24T07:18:53.802Z,6.30
2023-01-24T07:23:51.135Z,6.47
2023-01-24T07:26:19.634Z,6.28
2023-01-24T07:28:48.067Z,6.57
2023-01-24T07:31:17.310Z,7.10
2023-01-24T07:33:45.529Z,7.00
2023-01-24T07:36:15.745Z,7.47
2023-01-24T07:38:43.932Z,8.32
2023-01-24T07:41:12.642Z,7.13
2023-01-24T07:46:08.885Z,5.88
2023-01-24T07:48:37.067Z,6.53
2023-01-24T07:51:05.444Z,7.78
2023-01-24T07:53:33.985Z,6.45
2023-01-24T07:56:03.128Z,6.65
2023-01-24T07:58:32.314Z,6.85
2023-01-24T08:01:00.590Z,6.93
2023-01-24T08:03:28.931Z,6.13
2023-01-24T08:05:57.190Z,6.53
2023-01-24T08:08:25.626Z,6.88
2023-01-24T08:10:53.780Z,7.22
2023-01-24T08:13:22.126Z,6.93
2023-01-24T08:15:50.412Z,7.38
2023-01-24T08:18:18.814Z,6.68
2023-01-24T08:20:47.118Z,8.20
2023-01-24T08:23:15.501Z,7.00
2023-01-24T08:25:43.750Z,6.65
2023-01-24T08:28:12.001Z,7.32
2023-01-24T08:30:40.206Z,8.20
2023-01-24T08:33:10.651Z,6.68
2023-01-24T08:35:39.844Z,6.50
2023-01-24T08:38:08.071Z,7.35
2023-01-24T08:40:48.401Z,6.70
2023-01-24T08:43:17.682Z,7.82
2023-01-24T08:45:46.456Z,6.40
2023-01-24T08:48:14.805Z,6.85
2023-01-24T08:50:44.921Z,6.68
2023-01-24T08:53:13.627Z,5.75
2023-01-24T08:55:42.135Z,5.75
2023-01-24T09:00:38.555Z,5.93
2023-01-24T09:03:06.987Z,6.65
2023-01-24T09:05:35.560Z,6.05
2023-01-24T09:08:03.933Z,5.45
2023-01-24T09:10:32.232Z,6.05
2023-01-24T09:13:01.595Z,5.15
2023-01-24T09:15:30.391Z,7.45
2023-01-24T09:20:29.877Z,6.07
2023-01-24T09:22:58.101Z,6.75
2023-01-24T09:25:26.541Z,6.90
2023-01-24T09:27:57.880Z,7.25
2023-01-24T09:30:26.461Z,7.75
2023-01-24T09:32:54.636Z,7.03
2023-01-24T09:35:22.965Z,7.55
2023-01-24T09:37:53.599Z,8.40
2023-01-24T09:40:46.621Z,7.93
2023-01-24T09:43:24.103Z,7.90
2023-01-24T09:46:03.515Z,8.63
2023-01-24T09:48:32.639Z,7.25
2023-01-24T09:51:08.370Z,7.82
2023-01-24T09:53:48.448Z,7.85
2023-01-24T09:56:38.277Z,7.10
2023-01-24T09:59:22.544Z,7.80
2023-01-24T10:01:53.268Z,7.57
2023-01-24T10:04:36.807Z,8.27
2023-01-24T10:07:11.241Z,7.82
2023-01-24T10:10:05.195Z,8.05
2023-01-24T10:13:10.391Z,7.57
2023-01-24T10:15:51.561Z,7.63
2023-01-24T10:18:53.104Z,7.20
2023-01-24T10:21:33.569Z,8.02
2023-01-24T10:24:06.516Z,8.15
2023-01-24T10:26:44.216Z,7.55
2023-01-24T10:29:25.504Z,7.13
2023-01-24T10:32:35.371Z,7.53
2023-01-24T10:35:24.990Z,7.03
2023-01-24T10:37:57.331Z,7.05
2023-01-24T10:40:26.626Z,7.03
2023-01-24T10:45:40.347Z,7.55
2023-01-24T10:48:19.943Z,7.15
2023-01-24T10:50:48.271Z,7.28
2023-01-24T10:53:28.582Z,6.70
2023-01-24T10:56:01.866Z,6.72
2023-01-24T10:58:56.331Z,6.95
2023-01-24T11:01:34.044Z,6.88
2023-01-24T11:04:31.803Z,7.00
2023-01-24T11:07:00.525Z,6.35
2023-01-24T11:09:33.245Z,6.63
2023-01-24T11:12:02.065Z,7.25
2023-01-24T11:17:02.068Z,6.97
2023-01-24T11:19:38.212Z,7.20
2023-01-24T11:22:26.363Z,6.78
2023-01-24T11:25:02.718Z,7.20
2023-01-24T11:27:31.170Z,6.70
2023-01-24T11:30:20.546Z,6.88
2023-01-24T11:32:54.839Z,7.03
2023-01-24T11:35:24.867Z,7.32
2023-01-24T11:38:27.958Z,6.93
2023-01-24T11:41:05.544Z,6.10
2023-01-24T11:43:58.634Z,6.82
2023-01-24T11:46:57.789Z,6.78
2023-01-24T11:50:05.373Z,7.60
2023-01-24T11:52:36.526Z,7.32
2023-01-24T11:55:09.830Z,6.65
2023-01-24T11:58:15.177Z,6.38
2023-01-24T12:01:17.353Z,6.38
2023-01-24T12:04:22.813Z,6.30
2023-01-24T12:07:31.493Z,5.95
2023-01-24T12:10:26.635Z,6.63
2023-01-24T12:13:04.805Z,6.47
2023-01-24T12:15:47.415Z,6.07
2023-01-24T12:18:53.808Z,5.78
2023-01-24T12:21:22.127Z,5.95
2023-01-24T12:24:21.974Z,5.50
2023-01-24T12:26:58.041Z,6.45
2023-01-24T12:30:52.064Z,5.60
2023-01-24T12:33:47.823Z,5.80
2023-01-24T12:36:39.357Z,5.72
2023-01-24T12:39:50.560Z,6.40
2023-01-24T12:42:25.778Z,5.80
2023-01-24T12:45:06.196Z,6.18
2023-01-24T12:47:46.337Z,5.25
2023-01-24T12:50:45.000Z,6.15
2023-01-24T12:53:46.014Z,5.97
2023-01-24T12:56:25.273Z,5.63
2023-01-24T12:58:54.844Z,5.85
2023-01-24T13:01:46.247Z,5.43
2023-01-24T13:04:20.972Z,5.90
2023-01-24T13:07:16.944Z,5.47
2023-01-24T13:09:58.492Z,5.90
2023-01-24T13:12:28.999Z,5.18
2023-01-24T13:15:00.252Z,4.90
2023-01-24T13:18:17.025Z,5.55
2023-01-24T13:21:03.516Z,5.78
2023-01-24T13:23:59.891Z,4.70
2023-01-24T13:26:53.588Z,4.72
2023-01-24T13:29:37.261Z,4.70
2023-01-24T13:32:18.110Z,6.15
2023-01-24T13:34:53.327Z,5.65
2023-01-24T13:37:33.765Z,5.20
2023-01-24T13:40:27.287Z,5.38
2023-01-24T13:42:55.581Z,5.05
2023-01-24T13:45:26.667Z,6.22
2023-01-24T13:47:57.574Z,5.63
2023-01-24T13:50:27.631Z,5.95
2023-01-24T13:52:57.758Z,5.72
2023-01-24T13:55:26.087Z,5.32
2023-01-24T13:58:09.569Z,5.63
2023-01-24T14:00:59.773Z,5.25
2023-01-24T14:03:32.630Z,5.53
2023-01-24T14:06:03.963Z,6.78
2023-01-24T14:08:34.098Z,5.32
2023-01-24T14:11:05.265Z,5.65
2023-01-24T14:13:46.012Z,4.97
2023-01-24T14:16:26.309Z,5.18
2023-01-24T14:19:06.932Z,5.80
2023-01-24T14:22:01.327Z,5.72
2023-01-24T14:24:41.727Z,5.57
2023-01-24T14:27:38.322Z,6.05
2023-01-24T14:30:19.159Z,5.63
2023-01-24T14:32:58.795Z,5.30
2023-01-24T14:35:45.489Z,5.15
2023-01-24T14:38:18.983Z,5.20
2023-01-24T14:40:54.663Z,5.68
2023-01-24T14:43:40.402Z,4.65
2023-01-24T14:46:23.954Z,5.32
2023-01-24T14:48:53.023Z,5.55
2023-01-24T14:51:25.407Z,5.10
2023-01-24T14:53:55.525Z,5.30
2023-01-24T14:56:23.968Z,5.25
2023-01-24T14:58:54.702Z,5.22
2023-01-24T15:01:34.012Z,4.25
2023-01-24T15:04:02.626Z,5.22
2023-01-24T15:06:33.477Z,4.35
2023-01-24T15:09:03.455Z,5.15
2023-01-24T15:11:38.259Z,5.15
2023-01-24T15:14:20.770Z,4.82
2023-01-24T15:16:54.196Z,4.97
2023-01-24T15:19:27.185Z,5.07
2023-01-24T15:21:56.907Z,5.10
2023-01-24T15:24:28.025Z,4.93
2023-01-24T15:26:58.260Z,5.50
2023-01-24T15:30:12.838Z,5.03
2023-01-24T15:32:43.858Z,5.32
2023-01-24T15:36:01.652Z,5.68
2023-01-24T15:38:32.075Z,4.53
2023-01-24T15:41:24.825Z,5.13
2023-01-24T15:44:06.506Z,4.93
2023-01-24T15:46:58.985Z,5.28
2023-01-24T15:49:39.319Z,4.78
2023-01-24T15:52:10.626Z,5.43
2023-01-24T15:54:41.809Z,5.35
2023-01-24T15:57:39.532Z,4.85
2023-01-24T16:00:11.034Z,4.45
2023-01-24T16:02:39.666Z,5.38
2023-01-24T16:07:43.427Z,4.63
2023-01-24T16:10:16.152Z,4.82
2023-01-24T16:12:46.513Z,5.30
2023-01-24T16:15:18.284Z,5.32
2023-01-24T16:17:46.842Z,5.50
2023-01-24T16:20:25.277Z,5.63
2023-01-24T16:22:53.640Z,6.00
2023-01-24T16:25:23.101Z,5.57
2023-01-24T16:27:51.882Z,4.72
2023-01-24T16:30:25.904Z,4.75
2023-01-24T16:32:54.752Z,5.13
2023-01-24T16:37:51.376Z,5.22
2023-01-24T16:40:20.031Z,6.38
2023-01-24T16:42:49.161Z,5.25
2023-01-24T16:45:21.504Z,5.10
2023-01-24T16:47:49.741Z,5.60
2023-01-24T16:50:18.477Z,5.63
2023-01-24T16:52:47.119Z,5.97
2023-01-24T16:57:43.434Z,5.75
2023-01-24T17:00:13.797Z,4.63
2023-01-24T17:02:43.453Z,5.72
2023-01-24T17:05:12.883Z,6.45
2023-01-24T17:07:41.201Z,5.72
2023-01-24T17:10:10.837Z,5.43
2023-01-24T17:12:39.273Z,5.00
2023-01-24T17:15:08.216Z,5.55
2023-01-24T17:17:37.427Z,5.80
2023-01-24T17:20:10.508Z,5.93
2023-01-24T17:22:39.786Z,5.65
2023-01-24T17:25:08.989Z,6.43
2023-01-24T17:27:37.412Z,5.70
2023-01-24T17:30:06.978Z,6.47
2023-01-24T17:32:35.566Z,4.97
2023-01-24T17:35:03.776Z,5.65
2023-01-24T17:37:32.129Z,4.97
2023-01-24T17:40:00.466Z,5.72
2023-01-24T17:42:28.731Z,5.70
2023-01-24T17:44:57.098Z,6.20
2023-01-24T17:47:25.452Z,7.10
2023-01-24T17:51:34.842Z,7.55
2023-01-24T17:54:06.164Z,8.02
2023-01-24T17:56:34.369Z,7.57
2023-01-24T17:59:03.213Z,8.82
2023-01-24T18:01:31.729Z,8.15
2023-01-24T18:04:01.654Z,7.53
2023-01-24T18:06:30.397Z,7.57
2023-01-24T18:08:58.801Z,12.35
2023-01-24T18:11:27.207Z,13.13
2023-01-24T18:13:56.366Z,14.60
2023-01-24T18:16:24.904Z,13.95
2023-01-24T18:18:54.432Z,13.85
2023-01-24T18:21:24.929Z,13.15
2023-01-24T18:23:59.079Z,12.60
2023-01-24T18:26:29.827Z,12.32
2023-01-24T18:29:00.083Z,12.25
2023-01-24T18:31:28.860Z,13.85
2023-01-24T18:33:58.917Z,13.43
2023-01-24T18:36:28.187Z,13.25
2023-01-24T18:38:56.728Z,13.70
2023-01-24T18:43:54.059Z,11.93
2023-01-24T18:46:22.412Z,13.82
2023-01-24T18:48:50.737Z,12.32
2023-01-24T18:51:20.917Z,12.00
2023-01-24T18:53:52.924Z,12.55
2023-01-24T18:56:21.629Z,17.40
2023-01-24T19:01:24.270Z,14.90
2023-01-24T19:03:53.955Z,15.88
2023-01-24T19:06:30.050Z,15.13
2023-01-24T19:09:03.830Z,13.27
2023-01-24T19:11:35.465Z,10.48
2023-01-24T19:14:04.753Z,19.70
2023-01-24T19:16:40.008Z,18.40
2023-01-24T19:19:19.171Z,11.00
2023-01-24T19:21:50.576Z,9.68
2023-01-24T19:24:19.199Z,8.95
2023-01-24T19:26:47.697Z,8.60
2023-01-24T19:29:15.996Z,9.55
2023-01-24T19:31:44.515Z,8.07
2023-01-24T19:34:12.915Z,8.23
2023-01-24T19:36:41.184Z,7.88
2023-01-24T19:39:13.680Z,8.70
2023-01-24T19:41:41.998Z,8.75
2023-01-24T19:44:20.042Z,7.70
2023-01-24T19:46:50.619Z,7.68
2023-01-24T19:49:20.049Z,6.80
2023-01-24T19:51:48.800Z,7.55
2023-01-24T19:54:17.736Z,7.35
2023-01-24T19:56:46.279Z,7.93
2023-01-24T20:01:42.765Z,6.97
2023-01-24T20:04:27.540Z,7.70
2023-01-24T20:06:56.899Z,7.07
2023-01-24T20:09:25.280Z,7.53
2023-01-24T20:11:54.369Z,8.07
2023-01-24T20:14:23.231Z,7.18
2023-01-24T20:16:51.703Z,6.30
2023-01-24T20:19:28.100Z,7.65
2023-01-24T20:21:58.806Z,5.93
2023-01-24T20:24:27.786Z,6.80
2023-01-24T20:26:56.193Z,5.47
2023-01-24T20:31:54.232Z,6.28
2023-01-24T20:34:23.055Z,6.10
2023-01-24T20:36:51.544Z,5.80
2023-01-24T20:39:20.084Z,5.22
2023-01-24T20:41:48.408Z,4.38
2023-01-24T20:44:26.390Z,4.25
2023-01-24T20:46:58.638Z,3.72
2023-01-24T20:49:27.405Z,3.67
2023-01-24T20:51:56.683Z,3.28
2023-01-24T20:54:25.026Z,4.25
2023-01-24T20:56:53.611Z,6.75
2023-01-24T20:59:21.968Z,5.43
2023-01-24T21:01:50.507Z,5.63
2023-01-24T21:04:18.992Z,4.68
2023-01-24T21:06:47.544Z,4.80
2023-01-24T21:09:16.133Z,5.28
2023-01-24T21:11:44.489Z,5.38
2023-01-24T21:14:14.615Z,5.43
2023-01-24T21:16:43.281Z,4.32
2023-01-24T21:21:41.400Z,3.85
2023-01-24T21:24:20.016Z,3.75
2023-01-24T21:26:55.386Z,4.68
2023-01-24T21:29:24.421Z,3.42
2023-01-24T21:31:54.216Z,3.15
2023-01-24T21:34:22.837Z,4.10
2023-01-24T21:36:51.050Z,3.53
2023-01-24T21:39:19.552Z,2.90
2023-01-24T21:41:47.801Z,3.40
2023-01-24T21:44:16.136Z,3.80
2023-01-24T21:46:44.565Z,3.72
2023-01-24T21:49:13.005Z,3.50
2023-01-24T21:51:42.428Z,3.50
2023-01-24T21:54:19.919Z,3.85
2023-01-24T21:56:53.900Z,3.13
2023-01-24T21:59:23.892Z,3.33
2023-01-24T22:01:54.860Z,2.75
2023-01-24T22:04:24.687Z,3.40
2023-01-24T22:06:53.876Z,3.10
2023-01-24T22:09:22.579Z,2.80
2023-01-24T22:14:25.358Z,2.50
2023-01-24T22:16:57.060Z,3.33
2023-01-24T22:19:38.549Z,2.72
2023-01-24T22:22:34.873Z,3.17
2023-01-24T22:25:38.767Z,2.97
2023-01-24T22:28:12.022Z,2.63
2023-01-24T22:30:40.588Z,3.08
2023-01-24T22:33:10.416Z,2.58
2023-01-24T22:35:39.965Z,2.47
2023-01-24T22:38:29.526Z,3.05
2023-01-24T22:40:57.989Z,3.22
2023-01-24T22:43:26.164Z,2.83
2023-01-24T22:45:54.516Z,3.78
2023-01-24T22:48:22.831Z,3.00
2023-01-24T22:50:55.399Z,2.90
2023-01-24T22:53:23.631Z,3.47
2023-01-24T22:55:51.689Z,2.75
2023-01-24T22:58:20.100Z,2.42
2023-01-24T23:00:48.394Z,2.90
2023-01-24T23:03:16.637Z,2.88
2023-01-24T23:05:44.843Z,2.50
2023-01-24T23:08:13.438Z,2.47
2023-01-24T23:10:41.783Z,2.75
2023-01-24T23:13:12.284Z,2.95
2023-01-24T23:15:40.786Z,2.38
2023-01-24T23:18:15.153Z,2.65
2023-01-24T23:20:43.306Z,2.58
2023-01-24T23:23:11.495Z,2.53
2023-01-24T23:25:39.661Z,2.55
2023-01-24T23:28:07.866Z,2.38
2023-01-24T23:30:46.229Z,2.38
2023-01-24T23:33:40.800Z,2.33
2023-01-24T23:36:10.926Z,2.35
2023-01-24T23:38:39.186Z,2.00
2023-01-24T23:41:08.758Z,2.17
2023-01-24T23:43:37.115Z,2.53
2023-01-24T23:46:11.986Z,2.75
2023-01-24T23:48:40.318Z,2.25
2023-01-24T23:51:08.727Z,2.00
2023-01-24T23:53:37.060Z,2.10
2023-01-24T23:56:05.301Z,2.28
2023-01-24T23:58:33.664Z,1.88
